sensor_id;sensor_type;location;lat;lon;timestamp;temperature;humidity
65374;SHT31;52070;53.760;9.678;2022-08-16T00:00:16;21.32;79.58
65374;SHT31;52070;53.760;9.678;2022-08-16T00:02:43;21.31;79.89
65374;SHT31;52070;53.760;9.678;2022-08-16T00:05:11;21.28;80.02
65374;SHT31;52070;53.760;9.678;2022-08-16T00:07:39;21.28;80.06
65374;SHT31;52070;53.760;9.678;2022-08-16T00:10:08;21.22;80.31
65374;SHT31;52070;53.760;9.678;2022-08-16T00:12:40;21.25;80.30
65374;SHT31;52070;53.760;9.678;2022-08-16T00:15:10;21.24;80.16
65374;SHT31;52070;53.760;9.678;2022-08-16T00:17:37;21.25;80.15
65374;SHT31;52070;53.760;9.678;2022-08-16T00:20:05;21.27;80.05
65374;SHT31;52070;53.760;9.678;2022-08-16T00:22:35;21.31;79.84
65374;SHT31;52070;53.760;9.678;2022-08-16T00:25:04;21.29;80.10
65374;SHT31;52070;53.760;9.678;2022-08-16T00:27:31;21.31;80.05
65374;SHT31;52070;53.760;9.678;2022-08-16T00:30:00;21.32;79.98
65374;SHT31;52070;53.760;9.678;2022-08-16T00:32:27;21.32;79.86
65374;SHT31;52070;53.760;9.678;2022-08-16T00:34:54;21.39;79.93
65374;SHT31;52070;53.760;9.678;2022-08-16T00:37:22;21.39;79.82
65374;SHT31;52070;53.760;9.678;2022-08-16T00:39:50;21.35;79.93
65374;SHT31;52070;53.760;9.678;2022-08-16T00:42:17;21.39;79.83
65374;SHT31;52070;53.760;9.678;2022-08-16T00:44:49;21.39;79.86
65374;SHT31;52070;53.760;9.678;2022-08-16T00:47:22;21.42;79.87
65374;SHT31;52070;53.760;9.678;2022-08-16T00:49:49;21.42;79.80
65374;SHT31;52070;53.760;9.678;2022-08-16T00:52:16;21.39;79.79
65374;SHT31;52070;53.760;9.678;2022-08-16T00:54:43;21.39;79.76
65374;SHT31;52070;53.760;9.678;2022-08-16T00:57:11;21.39;79.63
65374;SHT31;52070;53.760;9.678;2022-08-16T00:59:39;21.37;79.84
65374;SHT31;52070;53.760;9.678;2022-08-16T01:02:08;21.34;79.76
65374;SHT31;52070;53.760;9.678;2022-08-16T01:04:39;21.32;79.85
65374;SHT31;52070;53.760;9.678;2022-08-16T01:07:07;21.31;79.96
65374;SHT31;52070;53.760;9.678;2022-08-16T01:09:37;21.28;79.95
65374;SHT31;52070;53.760;9.678;2022-08-16T01:12:07;21.34;79.92
65374;SHT31;52070;53.760;9.678;2022-08-16T01:14:40;21.29;79.92
65374;SHT31;52070;53.760;9.678;2022-08-16T01:17:09;21.28;79.97
65374;SHT31;52070;53.760;9.678;2022-08-16T01:19:43;21.25;80.08
65374;SHT31;52070;53.760;9.678;2022-08-16T01:22:17;21.19;80.43
65374;SHT31;52070;53.760;9.678;2022-08-16T01:24:49;21.09;80.71
65374;SHT31;52070;53.760;9.678;2022-08-16T01:27:20;21.07;80.71
65374;SHT31;52070;53.760;9.678;2022-08-16T01:29:53;21.08;80.66
65374;SHT31;52070;53.760;9.678;2022-08-16T01:32:21;21.04;80.88
65374;SHT31;52070;53.760;9.678;2022-08-16T01:34:48;21.02;80.75
65374;SHT31;52070;53.760;9.678;2022-08-16T01:37:15;20.98;80.76
65374;SHT31;52070;53.760;9.678;2022-08-16T01:39:42;20.98;80.76
65374;SHT31;52070;53.760;9.678;2022-08-16T01:42:11;20.98;80.66
65374;SHT31;52070;53.760;9.678;2022-08-16T01:44:38;20.98;80.43
65374;SHT31;52070;53.760;9.678;2022-08-16T01:47:06;21.01;80.45
65374;SHT31;52070;53.760;9.678;2022-08-16T01:49:37;20.99;80.48
65374;SHT31;52070;53.760;9.678;2022-08-16T01:52:08;21.01;80.33
65374;SHT31;52070;53.760;9.678;2022-08-16T01:54:36;20.98;80.41
65374;SHT31;52070;53.760;9.678;2022-08-16T01:57:05;20.98;80.20
65374;SHT31;52070;53.760;9.678;2022-08-16T01:59:35;21.01;80.02
65374;SHT31;52070;53.760;9.678;2022-08-16T02:02:03;21.02;80.04
65374;SHT31;52070;53.760;9.678;2022-08-16T02:04:32;21.04;79.98
65374;SHT31;52070;53.760;9.678;2022-08-16T02:06:59;21.02;80.06
65374;SHT31;52070;53.760;9.678;2022-08-16T02:09:28;21.02;80.11
65374;SHT31;52070;53.760;9.678;2022-08-16T02:11:57;20.99;80.13
65374;SHT31;52070;53.760;9.678;2022-08-16T02:14:28;20.95;80.38
65374;SHT31;52070;53.760;9.678;2022-08-16T02:16:59;20.88;80.53
65374;SHT31;52070;53.760;9.678;2022-08-16T02:19:29;20.91;80.48
65374;SHT31;52070;53.760;9.678;2022-08-16T02:21:56;20.91;80.61
65374;SHT31;52070;53.760;9.678;2022-08-16T02:24:25;20.87;80.85
65374;SHT31;52070;53.760;9.678;2022-08-16T02:26:52;20.85;80.86
65374;SHT31;52070;53.760;9.678;2022-08-16T02:29:19;20.81;80.85
65374;SHT31;52070;53.760;9.678;2022-08-16T02:31:48;20.81;81.06
65374;SHT31;52070;53.760;9.678;2022-08-16T02:34:17;20.78;81.10
65374;SHT31;52070;53.760;9.678;2022-08-16T02:36:45;20.74;81.29
65374;SHT31;52070;53.760;9.678;2022-08-16T02:39:13;20.74;81.46
65374;SHT31;52070;53.760;9.678;2022-08-16T02:41:43;20.74;81.28
65374;SHT31;52070;53.760;9.678;2022-08-16T02:44:11;20.70;81.46
65374;SHT31;52070;53.760;9.678;2022-08-16T02:46:38;20.67;81.38
65374;SHT31;52070;53.760;9.678;2022-08-16T02:49:06;20.66;81.65
65374;SHT31;52070;53.760;9.678;2022-08-16T02:51:35;20.66;81.53
65374;SHT31;52070;53.760;9.678;2022-08-16T02:54:03;20.63;81.36
65374;SHT31;52070;53.760;9.678;2022-08-16T02:56:30;20.61;81.36
65374;SHT31;52070;53.760;9.678;2022-08-16T02:58:57;20.60;81.49
65374;SHT31;52070;53.760;9.678;2022-08-16T03:01:27;20.60;81.44
65374;SHT31;52070;53.760;9.678;2022-08-16T03:03:55;20.56;81.18
65374;SHT31;52070;53.760;9.678;2022-08-16T03:06:24;20.51;81.12
65374;SHT31;52070;53.760;9.678;2022-08-16T03:08:53;20.48;80.87
65374;SHT31;52070;53.760;9.678;2022-08-16T03:11:20;20.46;81.65
65374;SHT31;52070;53.760;9.678;2022-08-16T03:13:50;20.46;81.67
65374;SHT31;52070;53.760;9.678;2022-08-16T03:16:18;20.41;81.58
65374;SHT31;52070;53.760;9.678;2022-08-16T03:18:46;20.37;82.01
65374;SHT31;52070;53.760;9.678;2022-08-16T03:21:13;20.27;82.22
65374;SHT31;52070;53.760;9.678;2022-08-16T03:23:41;20.22;82.33
65374;SHT31;52070;53.760;9.678;2022-08-16T03:26:09;20.14;82.40
65374;SHT31;52070;53.760;9.678;2022-08-16T03:28:36;20.10;82.81
65374;SHT31;52070;53.760;9.678;2022-08-16T03:31:03;20.03;82.58
65374;SHT31;52070;53.760;9.678;2022-08-16T03:33:31;20.00;82.94
65374;SHT31;52070;53.760;9.678;2022-08-16T03:35:58;19.95;83.23
65374;SHT31;52070;53.760;9.678;2022-08-16T03:38:27;19.92;83.17
65374;SHT31;52070;53.760;9.678;2022-08-16T03:40:55;19.89;83.06
65374;SHT31;52070;53.760;9.678;2022-08-16T03:43:24;19.89;82.94
65374;SHT31;52070;53.760;9.678;2022-08-16T03:45:53;19.86;83.36
65374;SHT31;52070;53.760;9.678;2022-08-16T03:48:23;19.83;83.76
65374;SHT31;52070;53.760;9.678;2022-08-16T03:50:51;19.82;84.03
65374;SHT31;52070;53.760;9.678;2022-08-16T03:53:18;19.85;83.79
65374;SHT31;52070;53.760;9.678;2022-08-16T03:55:45;19.86;83.69
65374;SHT31;52070;53.760;9.678;2022-08-16T03:58:12;19.86;83.84
65374;SHT31;52070;53.760;9.678;2022-08-16T04:00:40;19.85;83.95
65374;SHT31;52070;53.760;9.678;2022-08-16T04:03:07;19.83;84.18
65374;SHT31;52070;53.760;9.678;2022-08-16T04:05:36;19.85;84.42
65374;SHT31;52070;53.760;9.678;2022-08-16T04:08:05;19.87;84.26
65374;SHT31;52070;53.760;9.678;2022-08-16T04:10:32;19.87;84.45
65374;SHT31;52070;53.760;9.678;2022-08-16T04:12:59;19.87;84.57
65374;SHT31;52070;53.760;9.678;2022-08-16T04:15:26;19.89;84.56
65374;SHT31;52070;53.760;9.678;2022-08-16T04:17:55;19.89;84.71
65374;SHT31;52070;53.760;9.678;2022-08-16T04:20:22;19.85;84.82
65374;SHT31;52070;53.760;9.678;2022-08-16T04:22:50;19.87;84.86
65374;SHT31;52070;53.760;9.678;2022-08-16T04:25:17;19.87;84.73
65374;SHT31;52070;53.760;9.678;2022-08-16T04:27:45;19.89;84.77
65374;SHT31;52070;53.760;9.678;2022-08-16T04:30:15;19.87;84.65
65374;SHT31;52070;53.760;9.678;2022-08-16T04:32:43;19.89;84.55
65374;SHT31;52070;53.760;9.678;2022-08-16T04:35:14;19.92;84.79
65374;SHT31;52070;53.760;9.678;2022-08-16T04:37:41;19.92;84.86
65374;SHT31;52070;53.760;9.678;2022-08-16T04:40:10;19.92;84.94
65374;SHT31;52070;53.760;9.678;2022-08-16T04:42:38;19.95;84.96
65374;SHT31;52070;53.760;9.678;2022-08-16T04:45:09;19.99;84.74
65374;SHT31;52070;53.760;9.678;2022-08-16T04:47:39;20.03;84.64
65374;SHT31;52070;53.760;9.678;2022-08-16T04:50:09;20.05;84.35
65374;SHT31;52070;53.760;9.678;2022-08-16T04:52:37;20.09;83.89
65374;SHT31;52070;53.760;9.678;2022-08-16T04:55:10;20.12;83.91
65374;SHT31;52070;53.760;9.678;2022-08-16T04:57:39;20.12;84.38
65374;SHT31;52070;53.760;9.678;2022-08-16T05:00:09;20.17;84.47
65374;SHT31;52070;53.760;9.678;2022-08-16T05:02:38;20.20;84.35
65374;SHT31;52070;53.760;9.678;2022-08-16T05:05:07;20.24;84.16
65374;SHT31;52070;53.760;9.678;2022-08-16T05:07:34;20.23;83.99
65374;SHT31;52070;53.760;9.678;2022-08-16T05:10:04;20.26;83.86
65374;SHT31;52070;53.760;9.678;2022-08-16T05:12:31;20.30;84.29
65374;SHT31;52070;53.760;9.678;2022-08-16T05:14:59;20.30;84.26
65374;SHT31;52070;53.760;9.678;2022-08-16T05:17:26;20.23;84.44
65374;SHT31;52070;53.760;9.678;2022-08-16T05:19:54;20.29;84.44
65374;SHT31;52070;53.760;9.678;2022-08-16T05:22:20;20.27;84.53
65374;SHT31;52070;53.760;9.678;2022-08-16T05:24:47;20.33;84.61
65374;SHT31;52070;53.760;9.678;2022-08-16T05:27:16;20.34;84.52
65374;SHT31;52070;53.760;9.678;2022-08-16T05:29:43;20.33;84.50
65374;SHT31;52070;53.760;9.678;2022-08-16T05:32:10;20.37;84.36
65374;SHT31;52070;53.760;9.678;2022-08-16T05:34:37;20.44;84.08
65374;SHT31;52070;53.760;9.678;2022-08-16T05:37:04;20.43;84.27
65374;SHT31;52070;53.760;9.678;2022-08-16T05:39:31;20.44;84.14
65374;SHT31;52070;53.760;9.678;2022-08-16T05:41:58;20.41;84.11
65374;SHT31;52070;53.760;9.678;2022-08-16T05:44:26;20.40;84.10
65374;SHT31;52070;53.760;9.678;2022-08-16T05:46:56;20.50;83.83
65374;SHT31;52070;53.760;9.678;2022-08-16T05:49:24;20.47;83.88
65374;SHT31;52070;53.760;9.678;2022-08-16T05:51:52;20.50;83.84
65374;SHT31;52070;53.760;9.678;2022-08-16T05:54:20;20.53;83.72
65374;SHT31;52070;53.760;9.678;2022-08-16T05:56:48;20.54;83.83
65374;SHT31;52070;53.760;9.678;2022-08-16T05:59:16;20.58;83.76
65374;SHT31;52070;53.760;9.678;2022-08-16T06:01:45;20.60;83.47
65374;SHT31;52070;53.760;9.678;2022-08-16T06:04:16;20.58;83.51
65374;SHT31;52070;53.760;9.678;2022-08-16T06:06:43;20.58;83.43
65374;SHT31;52070;53.760;9.678;2022-08-16T06:09:12;20.68;83.40
65374;SHT31;52070;53.760;9.678;2022-08-16T06:11:40;20.68;83.00
65374;SHT31;52070;53.760;9.678;2022-08-16T06:14:07;20.73;83.00
65374;SHT31;52070;53.760;9.678;2022-08-16T06:16:34;20.78;82.90
65374;SHT31;52070;53.760;9.678;2022-08-16T06:19:02;20.84;82.77
65374;SHT31;52070;53.760;9.678;2022-08-16T06:21:29;20.78;82.69
65374;SHT31;52070;53.760;9.678;2022-08-16T06:23:56;20.81;82.67
65374;SHT31;52070;53.760;9.678;2022-08-16T06:26:24;20.91;82.82
65374;SHT31;52070;53.760;9.678;2022-08-16T06:28:51;20.97;82.63
65374;SHT31;52070;53.760;9.678;2022-08-16T06:31:18;21.04;82.40
65374;SHT31;52070;53.760;9.678;2022-08-16T06:33:44;21.05;82.32
65374;SHT31;52070;53.760;9.678;2022-08-16T06:36:13;21.05;82.19
65374;SHT31;52070;53.760;9.678;2022-08-16T06:38:41;21.05;82.28
65374;SHT31;52070;53.760;9.678;2022-08-16T06:41:08;21.07;82.34
65374;SHT31;52070;53.760;9.678;2022-08-16T06:43:35;21.09;82.35
65374;SHT31;52070;53.760;9.678;2022-08-16T06:46:07;21.18;81.91
65374;SHT31;52070;53.760;9.678;2022-08-16T06:48:35;21.25;81.23
65374;SHT31;52070;53.760;9.678;2022-08-16T06:51:04;21.31;81.25
65374;SHT31;52070;53.760;9.678;2022-08-16T06:53:33;21.35;81.21
65374;SHT31;52070;53.760;9.678;2022-08-16T06:56:02;21.42;81.05
65374;SHT31;52070;53.760;9.678;2022-08-16T06:58:30;21.46;81.10
65374;SHT31;52070;53.760;9.678;2022-08-16T07:00:57;21.52;80.76
65374;SHT31;52070;53.760;9.678;2022-08-16T07:03:24;21.55;80.54
65374;SHT31;52070;53.760;9.678;2022-08-16T07:05:51;21.63;80.18
65374;SHT31;52070;53.760;9.678;2022-08-16T07:08:18;21.75;80.14
65374;SHT31;52070;53.760;9.678;2022-08-16T07:10:46;21.80;79.69
65374;SHT31;52070;53.760;9.678;2022-08-16T07:13:13;21.80;79.33
65374;SHT31;52070;53.760;9.678;2022-08-16T07:15:40;21.86;79.10
65374;SHT31;52070;53.760;9.678;2022-08-16T07:18:09;21.83;78.98
65374;SHT31;52070;53.760;9.678;2022-08-16T07:20:36;21.92;78.94
65374;SHT31;52070;53.760;9.678;2022-08-16T07:23:04;21.96;78.80
65374;SHT31;52070;53.760;9.678;2022-08-16T07:25:32;22.09;79.24
65374;SHT31;52070;53.760;9.678;2022-08-16T07:28:01;22.25;78.07
65374;SHT31;52070;53.760;9.678;2022-08-16T07:30:30;22.32;78.27
65374;SHT31;52070;53.760;9.678;2022-08-16T07:32:57;22.44;78.33
65374;SHT31;52070;53.760;9.678;2022-08-16T07:35:24;22.58;76.87
65374;SHT31;52070;53.760;9.678;2022-08-16T07:37:51;22.64;76.91
65374;SHT31;52070;53.760;9.678;2022-08-16T07:40:19;22.71;75.90
65374;SHT31;52070;53.760;9.678;2022-08-16T07:42:46;22.68;75.89
65374;SHT31;52070;53.760;9.678;2022-08-16T07:45:14;22.67;76.35
65374;SHT31;52070;53.760;9.678;2022-08-16T07:47:42;22.74;76.13
65374;SHT31;52070;53.760;9.678;2022-08-16T07:50:09;22.74;75.83
65374;SHT31;52070;53.760;9.678;2022-08-16T07:52:37;22.83;75.98
65374;SHT31;52070;53.760;9.678;2022-08-16T07:55:05;22.83;75.66
65374;SHT31;52070;53.760;9.678;2022-08-16T07:57:32;22.83;76.12
65374;SHT31;52070;53.760;9.678;2022-08-16T07:59:59;22.91;75.48
65374;SHT31;52070;53.760;9.678;2022-08-16T08:02:27;22.99;75.30
65374;SHT31;52070;53.760;9.678;2022-08-16T08:04:55;22.94;75.35
65374;SHT31;52070;53.760;9.678;2022-08-16T08:07:22;22.97;75.29
65374;SHT31;52070;53.760;9.678;2022-08-16T08:09:49;23.11;75.00
65374;SHT31;52070;53.760;9.678;2022-08-16T08:12:17;23.18;75.07
65374;SHT31;52070;53.760;9.678;2022-08-16T08:14:44;23.18;74.77
65374;SHT31;52070;53.760;9.678;2022-08-16T08:17:11;23.11;74.28
65374;SHT31;52070;53.760;9.678;2022-08-16T08:19:39;23.08;74.65
65374;SHT31;52070;53.760;9.678;2022-08-16T08:22:07;23.14;74.59
65374;SHT31;52070;53.760;9.678;2022-08-16T08:24:35;23.18;73.98
65374;SHT31;52070;53.760;9.678;2022-08-16T08:27:06;23.23;74.51
65374;SHT31;52070;53.760;9.678;2022-08-16T08:29:34;23.36;74.12
65374;SHT31;52070;53.760;9.678;2022-08-16T08:32:02;23.42;73.98
65374;SHT31;52070;53.760;9.678;2022-08-16T08:34:29;23.52;73.63
65374;SHT31;52070;53.760;9.678;2022-08-16T08:36:58;23.50;71.83
65374;SHT31;52070;53.760;9.678;2022-08-16T08:39:25;23.56;71.44
65374;SHT31;52070;53.760;9.678;2022-08-16T08:41:52;23.69;71.83
65374;SHT31;52070;53.760;9.678;2022-08-16T08:44:19;23.74;70.72
65374;SHT31;52070;53.760;9.678;2022-08-16T08:46:46;23.84;70.88
65374;SHT31;52070;53.760;9.678;2022-08-16T08:49:13;23.96;69.88
65374;SHT31;52070;53.760;9.678;2022-08-16T08:51:40;24.04;68.60
65374;SHT31;52070;53.760;9.678;2022-08-16T08:54:09;24.14;68.51
65374;SHT31;52070;53.760;9.678;2022-08-16T08:56:38;24.24;68.73
65374;SHT31;52070;53.760;9.678;2022-08-16T08:59:06;24.24;67.28
65374;SHT31;52070;53.760;9.678;2022-08-16T09:01:35;24.27;68.09
65374;SHT31;52070;53.760;9.678;2022-08-16T09:04:04;24.33;68.31
65374;SHT31;52070;53.760;9.678;2022-08-16T09:06:31;24.43;67.96
65374;SHT31;52070;53.760;9.678;2022-08-16T09:08:59;24.50;66.69
65374;SHT31;52070;53.760;9.678;2022-08-16T09:11:27;24.63;67.06
65374;SHT31;52070;53.760;9.678;2022-08-16T09:13:54;24.82;66.74
65374;SHT31;52070;53.760;9.678;2022-08-16T09:16:21;24.84;64.88
65374;SHT31;52070;53.760;9.678;2022-08-16T09:18:48;24.81;64.40
65374;SHT31;52070;53.760;9.678;2022-08-16T09:21:15;24.82;64.87
65374;SHT31;52070;53.760;9.678;2022-08-16T09:23:42;24.74;65.06
65374;SHT31;52070;53.760;9.678;2022-08-16T09:26:11;24.71;65.40
65374;SHT31;52070;53.760;9.678;2022-08-16T09:28:42;24.79;64.84
65374;SHT31;52070;53.760;9.678;2022-08-16T09:31:09;24.96;64.80
65374;SHT31;52070;53.760;9.678;2022-08-16T09:33:38;25.01;63.59
65374;SHT31;52070;53.760;9.678;2022-08-16T09:36:05;25.02;63.53
65374;SHT31;52070;53.760;9.678;2022-08-16T09:38:33;25.14;65.33
65374;SHT31;52070;53.760;9.678;2022-08-16T09:41:02;25.26;62.86
65374;SHT31;52070;53.760;9.678;2022-08-16T09:43:31;25.46;62.09
65374;SHT31;52070;53.760;9.678;2022-08-16T09:46:01;25.63;61.91
65374;SHT31;52070;53.760;9.678;2022-08-16T09:48:28;25.84;60.31
65374;SHT31;52070;53.760;9.678;2022-08-16T09:50:57;26.04;58.10
65374;SHT31;52070;53.760;9.678;2022-08-16T09:53:24;26.21;57.85
65374;SHT31;52070;53.760;9.678;2022-08-16T09:55:53;26.17;57.78
65374;SHT31;52070;53.760;9.678;2022-08-16T09:58:22;26.21;58.08
65374;SHT31;52070;53.760;9.678;2022-08-16T10:00:50;26.34;58.01
65374;SHT31;52070;53.760;9.678;2022-08-16T10:03:19;26.55;57.53
65374;SHT31;52070;53.760;9.678;2022-08-16T10:05:47;26.65;56.61
65374;SHT31;52070;53.760;9.678;2022-08-16T10:08:14;26.81;58.30
65374;SHT31;52070;53.760;9.678;2022-08-16T10:10:42;26.86;56.83
65374;SHT31;52070;53.760;9.678;2022-08-16T10:13:30;26.99;57.39
65374;SHT31;52070;53.760;9.678;2022-08-16T10:15:59;26.98;56.61
65374;SHT31;52070;53.760;9.678;2022-08-16T10:18:29;26.99;56.54
65374;SHT31;52070;53.760;9.678;2022-08-16T10:20:56;26.96;55.93
65374;SHT31;52070;53.760;9.678;2022-08-16T10:23:24;26.92;56.40
65374;SHT31;52070;53.760;9.678;2022-08-16T10:25:51;27.17;55.89
65374;SHT31;52070;53.760;9.678;2022-08-16T10:28:19;27.30;56.42
65374;SHT31;52070;53.760;9.678;2022-08-16T10:30:46;27.54;55.49
65374;SHT31;52070;53.760;9.678;2022-08-16T10:33:13;27.68;55.80
65374;SHT31;52070;53.760;9.678;2022-08-16T10:35:43;27.73;54.97
65374;SHT31;52070;53.760;9.678;2022-08-16T10:38:11;27.70;54.78
65374;SHT31;52070;53.760;9.678;2022-08-16T10:40:39;27.86;53.92
65374;SHT31;52070;53.760;9.678;2022-08-16T10:43:07;27.98;54.44
65374;SHT31;52070;53.760;9.678;2022-08-16T10:45:34;28.20;53.54
65374;SHT31;52070;53.760;9.678;2022-08-16T10:48:01;28.31;53.01
65374;SHT31;52070;53.760;9.678;2022-08-16T10:50:29;28.51;52.06
65374;SHT31;52070;53.760;9.678;2022-08-16T10:52:58;28.17;51.20
65374;SHT31;52070;53.760;9.678;2022-08-16T10:55:32;28.10;51.99
65374;SHT31;52070;53.760;9.678;2022-08-16T10:58:02;28.52;50.05
65374;SHT31;52070;53.760;9.678;2022-08-16T11:00:30;28.72;50.27
65374;SHT31;52070;53.760;9.678;2022-08-16T11:02:58;28.56;50.03
65374;SHT31;52070;53.760;9.678;2022-08-16T11:05:27;28.63;49.79
65374;SHT31;52070;53.760;9.678;2022-08-16T11:07:54;28.73;50.05
65374;SHT31;52070;53.760;9.678;2022-08-16T11:10:25;28.88;50.02
65374;SHT31;52070;53.760;9.678;2022-08-16T11:12:53;28.80;49.93
65374;SHT31;52070;53.760;9.678;2022-08-16T11:15:20;28.86;49.18
65374;SHT31;52070;53.760;9.678;2022-08-16T11:17:49;29.13;50.38
65374;SHT31;52070;53.760;9.678;2022-08-16T11:20:17;29.09;49.60
65374;SHT31;52070;53.760;9.678;2022-08-16T11:22:44;28.96;51.45
65374;SHT31;52070;53.760;9.678;2022-08-16T11:25:13;28.98;50.92
65374;SHT31;52070;53.760;9.678;2022-08-16T11:27:42;29.20;49.34
65374;SHT31;52070;53.760;9.678;2022-08-16T11:30:12;29.31;48.43
65374;SHT31;52070;53.760;9.678;2022-08-16T11:32:40;29.09;49.60
65374;SHT31;52070;53.760;9.678;2022-08-16T11:35:13;28.83;49.87
65374;SHT31;52070;53.760;9.678;2022-08-16T11:37:43;28.44;50.04
65374;SHT31;52070;53.760;9.678;2022-08-16T11:40:10;28.22;51.28
65374;SHT31;52070;53.760;9.678;2022-08-16T11:42:38;28.17;52.55
65374;SHT31;52070;53.760;9.678;2022-08-16T11:45:07;28.27;50.84
65374;SHT31;52070;53.760;9.678;2022-08-16T11:47:35;28.51;51.16
65374;SHT31;52070;53.760;9.678;2022-08-16T11:50:03;28.83;48.35
65374;SHT31;52070;53.760;9.678;2022-08-16T11:52:33;28.88;49.08
65374;SHT31;52070;53.760;9.678;2022-08-16T11:55:01;28.95;47.38
65374;SHT31;52070;53.760;9.678;2022-08-16T11:57:28;28.98;48.43
65374;SHT31;52070;53.760;9.678;2022-08-16T11:59:55;29.13;47.40
65374;SHT31;52070;53.760;9.678;2022-08-16T12:02:23;29.53;46.80
65374;SHT31;52070;53.760;9.678;2022-08-16T12:04:51;29.73;47.31
65374;SHT31;52070;53.760;9.678;2022-08-16T12:07:18;29.63;46.43
65374;SHT31;52070;53.760;9.678;2022-08-16T12:09:45;29.80;44.90
65374;SHT31;52070;53.760;9.678;2022-08-16T12:12:13;29.67;46.35
65374;SHT31;52070;53.760;9.678;2022-08-16T12:14:40;29.77;45.43
65374;SHT31;52070;53.760;9.678;2022-08-16T12:17:07;29.88;45.33
65374;SHT31;52070;53.760;9.678;2022-08-16T12:19:35;29.44;47.58
65374;SHT31;52070;53.760;9.678;2022-08-16T12:22:03;28.62;48.85
65374;SHT31;52070;53.760;9.678;2022-08-16T12:24:30;28.35;49.63
65374;SHT31;52070;53.760;9.678;2022-08-16T12:26:57;28.07;50.79
65374;SHT31;52070;53.760;9.678;2022-08-16T12:29:24;27.47;52.38
65374;SHT31;52070;53.760;9.678;2022-08-16T12:31:51;27.71;53.89
65374;SHT31;52070;53.760;9.678;2022-08-16T12:34:18;28.34;52.25
65374;SHT31;52070;53.760;9.678;2022-08-16T12:36:47;28.91;51.36
65374;SHT31;52070;53.760;9.678;2022-08-16T12:39:14;29.26;52.00
65374;SHT31;52070;53.760;9.678;2022-08-16T12:41:42;29.40;49.65
65374;SHT31;52070;53.760;9.678;2022-08-16T12:44:11;29.23;47.95
65374;SHT31;52070;53.760;9.678;2022-08-16T12:46:39;29.31;47.45
65374;SHT31;52070;53.760;9.678;2022-08-16T12:49:07;29.60;45.04
65374;SHT31;52070;53.760;9.678;2022-08-16T12:51:38;29.87;45.33
65374;SHT31;52070;53.760;9.678;2022-08-16T12:54:08;29.92;44.68
65374;SHT31;52070;53.760;9.678;2022-08-16T12:56:36;30.14;45.64
65374;SHT31;52070;53.760;9.678;2022-08-16T12:59:06;30.53;43.56
65374;SHT31;52070;53.760;9.678;2022-08-16T13:01:35;30.62;43.88
65374;SHT31;52070;53.760;9.678;2022-08-16T13:04:05;30.73;43.60
65374;SHT31;52070;53.760;9.678;2022-08-16T13:06:34;31.10;43.22
65374;SHT31;52070;53.760;9.678;2022-08-16T13:09:04;31.12;40.64
65374;SHT31;52070;53.760;9.678;2022-08-16T13:11:53;31.09;41.31
65374;SHT31;52070;53.760;9.678;2022-08-16T13:14:25;31.07;39.52
65374;SHT31;52070;53.760;9.678;2022-08-16T13:16:52;31.17;38.87
65374;SHT31;52070;53.760;9.678;2022-08-16T13:19:19;31.10;39.53
65374;SHT31;52070;53.760;9.678;2022-08-16T13:21:48;31.13;39.80
65374;SHT31;52070;53.760;9.678;2022-08-16T13:24:15;31.38;40.85
65374;SHT31;52070;53.760;9.678;2022-08-16T13:26:42;31.70;38.14
65374;SHT31;52070;53.760;9.678;2022-08-16T13:29:10;31.88;40.15
65374;SHT31;52070;53.760;9.678;2022-08-16T13:31:37;32.04;38.18
65374;SHT31;52070;53.760;9.678;2022-08-16T13:34:04;32.27;39.32
65374;SHT31;52070;53.760;9.678;2022-08-16T13:36:32;31.85;37.15
65374;SHT31;52070;53.760;9.678;2022-08-16T13:38:59;31.71;40.77
65374;SHT31;52070;53.760;9.678;2022-08-16T13:41:26;31.91;40.49
65374;SHT31;52070;53.760;9.678;2022-08-16T13:43:53;31.61;39.50
65374;SHT31;52070;53.760;9.678;2022-08-16T13:46:22;31.47;39.13
65374;SHT31;52070;53.760;9.678;2022-08-16T13:48:49;31.17;38.40
65374;SHT31;52070;53.760;9.678;2022-08-16T13:51:18;30.87;38.51
65374;SHT31;52070;53.760;9.678;2022-08-16T13:53:50;30.87;39.36
65374;SHT31;52070;53.760;9.678;2022-08-16T13:56:17;30.72;38.84
65374;SHT31;52070;53.760;9.678;2022-08-16T13:58:44;30.80;39.76
65374;SHT31;52070;53.760;9.678;2022-08-16T14:01:13;30.73;39.53
65374;SHT31;52070;53.760;9.678;2022-08-16T14:03:42;30.73;39.52
65374;SHT31;52070;53.760;9.678;2022-08-16T14:06:09;30.94;39.16
65374;SHT31;52070;53.760;9.678;2022-08-16T14:08:37;30.76;39.60
65374;SHT31;52070;53.760;9.678;2022-08-16T14:11:04;30.49;39.15
65374;SHT31;52070;53.760;9.678;2022-08-16T14:13:31;30.75;40.58
65374;SHT31;52070;53.760;9.678;2022-08-16T14:15:58;30.76;38.92
65374;SHT31;52070;53.760;9.678;2022-08-16T14:18:25;31.12;39.05
65374;SHT31;52070;53.760;9.678;2022-08-16T14:20:54;31.50;38.79
65374;SHT31;52070;53.760;9.678;2022-08-16T14:23:21;31.77;37.45
65374;SHT31;52070;53.760;9.678;2022-08-16T14:25:48;31.54;37.81
65374;SHT31;52070;53.760;9.678;2022-08-16T14:28:15;31.58;38.69
65374;SHT31;52070;53.760;9.678;2022-08-16T14:30:42;31.78;37.07
65374;SHT31;52070;53.760;9.678;2022-08-16T14:33:09;31.89;37.11
65374;SHT31;52070;53.760;9.678;2022-08-16T14:35:36;31.65;38.22
65374;SHT31;52070;53.760;9.678;2022-08-16T14:38:05;31.78;37.76
65374;SHT31;52070;53.760;9.678;2022-08-16T14:40:32;31.31;37.53
65374;SHT31;52070;53.760;9.678;2022-08-16T14:43:00;31.23;38.78
65374;SHT31;52070;53.760;9.678;2022-08-16T14:45:28;31.14;38.21
65374;SHT31;52070;53.760;9.678;2022-08-16T14:47:55;31.17;37.38
65374;SHT31;52070;53.760;9.678;2022-08-16T14:50:24;31.17;38.07
65374;SHT31;52070;53.760;9.678;2022-08-16T14:52:53;31.12;38.09
65374;SHT31;52070;53.760;9.678;2022-08-16T14:55:22;31.17;38.66
65374;SHT31;52070;53.760;9.678;2022-08-16T14:57:50;31.31;37.60
65374;SHT31;52070;53.760;9.678;2022-08-16T15:00:17;31.20;37.18
65374;SHT31;52070;53.760;9.678;2022-08-16T15:02:49;31.27;37.85
65374;SHT31;52070;53.760;9.678;2022-08-16T15:05:18;31.16;37.29
65374;SHT31;52070;53.760;9.678;2022-08-16T15:07:47;31.23;37.13
65374;SHT31;52070;53.760;9.678;2022-08-16T15:10:14;31.20;38.04
65374;SHT31;52070;53.760;9.678;2022-08-16T15:12:43;31.23;37.69
65374;SHT31;52070;53.760;9.678;2022-08-16T15:15:14;31.61;37.79
65374;SHT31;52070;53.760;9.678;2022-08-16T15:17:43;31.73;37.26
65374;SHT31;52070;53.760;9.678;2022-08-16T15:20:11;31.54;37.09
65374;SHT31;52070;53.760;9.678;2022-08-16T15:22:40;31.07;37.55
65374;SHT31;52070;53.760;9.678;2022-08-16T15:25:10;30.72;38.96
65374;SHT31;52070;53.760;9.678;2022-08-16T15:27:38;30.55;38.98
65374;SHT31;52070;53.760;9.678;2022-08-16T15:30:09;30.63;39.43
65374;SHT31;52070;53.760;9.678;2022-08-16T15:32:37;30.87;39.32
65374;SHT31;52070;53.760;9.678;2022-08-16T15:35:06;30.87;39.73